createdAt,value
2023-02-25T00:00:00.710Z,20.25
2023-02-25T00:02:31.189Z,21.05
2023-02-25T00:05:08.229Z,21.38
2023-02-25T00:07:40.949Z,23.50
2023-02-25T00:10:13.226Z,22.67
2023-02-25T00:12:46.671Z,23.73
2023-02-25T00:15:17.285Z,22.95
2023-02-25T00:17:47.678Z,23.48
2023-02-25T00:20:23.188Z,24.17
2023-02-25T00:22:53.689Z,23.15
2023-02-25T00:25:24.082Z,24.00
2023-02-25T00:27:57.648Z,24.70
2023-02-25T00:30:29.485Z,26.42
2023-02-25T00:33:00.473Z,31.85
2023-02-25T00:35:30.711Z,23.88
2023-02-25T00:38:14.786Z,24.67
2023-02-25T00:40:50.187Z,23.98
2023-02-25T00:43:20.332Z,22.92
2023-02-25T00:45:50.717Z,23.25
2023-02-25T00:48:21.186Z,24.23
2023-02-25T00:50:52.195Z,22.98
2023-02-25T00:53:23.395Z,22.20
2023-02-25T00:56:03.559Z,22.67
2023-02-25T00:58:37.424Z,24.63
2023-02-25T01:01:17.530Z,42.88
2023-02-25T01:03:50.778Z,44.05
2023-02-25T01:06:22.805Z,42.47
2023-02-25T01:08:54.261Z,41.30
2023-02-25T01:11:30.618Z,37.08
2023-02-25T01:14:16.200Z,22.25
2023-02-25T01:16:48.464Z,21.33
2023-02-25T01:19:24.935Z,20.23
2023-02-25T01:21:58.635Z,22.20
2023-02-25T01:24:33.381Z,22.08
2023-02-25T01:27:05.463Z,21.60
2023-02-25T01:29:42.216Z,21.20
2023-02-25T01:32:17.111Z,21.95
2023-02-25T01:34:49.354Z,21.42
2023-02-25T01:37:20.194Z,22.25
2023-02-25T01:39:53.174Z,22.52
2023-02-25T01:42:23.350Z,21.35
2023-02-25T01:45:33.584Z,21.27
2023-02-25T01:48:27.153Z,20.23
2023-02-25T01:51:05.883Z,20.88
2023-02-25T01:53:45.043Z,21.05
2023-02-25T01:56:23.637Z,21.17
2023-02-25T01:58:57.947Z,22.63
2023-02-25T02:01:37.749Z,20.90
2023-02-25T02:04:13.288Z,21.00
2023-02-25T02:06:46.497Z,20.17
2023-02-25T02:09:26.469Z,19.10
2023-02-25T02:12:00.171Z,18.30
2023-02-25T02:14:37.578Z,20.05
2023-02-25T02:17:20.902Z,19.13
2023-02-25T02:20:30.278Z,18.33
2023-02-25T02:23:39.713Z,21.05
2023-02-25T02:26:40.056Z,19.85
2023-02-25T02:29:49.353Z,18.88
2023-02-25T02:32:44.056Z,18.42
2023-02-25T02:35:54.437Z,18.30
2023-02-25T02:38:47.486Z,19.27
2023-02-25T02:41:57.046Z,18.70
2023-02-25T02:44:40.973Z,17.98
2023-02-25T02:47:37.224Z,17.75
2023-02-25T02:50:32.416Z,16.55
2023-02-25T02:53:11.732Z,22.95
2023-02-25T02:55:47.394Z,22.80
2023-02-25T02:58:39.957Z,23.85
2023-02-25T03:01:21.344Z,49.10
2023-02-25T03:04:02.096Z,19.95
2023-02-25T03:06:41.211Z,17.85
2023-02-25T03:09:18.135Z,18.50
2023-02-25T03:11:48.891Z,17.70
2023-02-25T03:14:24.452Z,17.52
2023-02-25T03:17:11.354Z,18.08
2023-02-25T03:20:21.109Z,17.95
2023-02-25T03:22:54.202Z,16.50
2023-02-25T03:25:50.138Z,15.73
2023-02-25T03:28:35.428Z,15.57
2023-02-25T03:31:27.262Z,16.08
2023-02-25T03:34:03.156Z,15.57
2023-02-25T03:36:41.854Z,15.32
2023-02-25T03:39:21.417Z,25.15
2023-02-25T03:41:55.965Z,55.65
2023-02-25T03:44:38.553Z,21.40
2023-02-25T03:47:14.598Z,15.90
2023-02-25T03:50:16.020Z,16.05
2023-02-25T03:52:49.124Z,15.82
2023-02-25T03:55:38.816Z,16.52
2023-02-25T03:58:11.215Z,17.50
2023-02-25T04:00:47.972Z,17.15
2023-02-25T04:03:20.334Z,25.88
2023-02-25T04:05:57.563Z,17.25
2023-02-25T04:08:28.920Z,17.63
2023-02-25T04:10:59.406Z,16.50
2023-02-25T04:13:33.205Z,17.63
2023-02-25T04:16:03.999Z,17.15
2023-02-25T04:18:36.598Z,16.05
2023-02-25T04:21:10.220Z,15.98
2023-02-25T04:23:42.503Z,16.73
2023-02-25T04:26:13.060Z,15.55
2023-02-25T04:28:43.560Z,15.52
2023-02-25T04:31:14.182Z,15.80
2023-02-25T04:33:45.842Z,15.77
2023-02-25T04:36:28.002Z,22.83
2023-02-25T04:39:00.105Z,16.65
2023-02-25T04:41:36.346Z,16.23
2023-02-25T04:44:08.484Z,16.33
2023-02-25T04:46:46.042Z,15.90
2023-02-25T04:49:16.102Z,16.77
2023-02-25T04:51:46.426Z,16.85
2023-02-25T04:54:20.001Z,15.63
2023-02-25T04:56:51.836Z,16.58
2023-02-25T04:59:22.547Z,15.95
2023-02-25T05:01:59.900Z,15.35
2023-02-25T05:04:31.471Z,14.90
2023-02-25T05:07:01.822Z,25.33
2023-02-25T05:09:33.543Z,16.98
2023-02-25T05:12:05.749Z,15.02
2023-02-25T05:14:36.577Z,16.40
2023-02-25T05:17:13.546Z,16.75
2023-02-25T05:19:45.308Z,15.40
2023-02-25T05:22:26.107Z,14.73
2023-02-25T05:24:56.843Z,16.60
2023-02-25T05:27:29.078Z,14.90
2023-02-25T05:30:00.846Z,15.13
2023-02-25T05:32:35.548Z,14.77
2023-02-25T05:35:07.300Z,15.13
2023-02-25T05:37:39.539Z,14.38
2023-02-25T05:40:11.910Z,14.52
2023-02-25T05:42:42.800Z,14.85
2023-02-25T05:45:15.919Z,14.93
2023-02-25T05:47:50.734Z,14.02
2023-02-25T05:50:22.165Z,14.48
2023-02-25T05:52:57.019Z,14.75
2023-02-25T05:55:28.398Z,15.25
2023-02-25T05:57:58.890Z,14.77
2023-02-25T06:00:35.032Z,15.30
2023-02-25T06:03:08.948Z,15.60
2023-02-25T06:05:46.892Z,15.18
2023-02-25T06:08:22.285Z,14.00
2023-02-25T06:10:53.725Z,13.57
2023-02-25T06:13:25.905Z,13.73
2023-02-25T06:15:58.175Z,23.20
2023-02-25T06:18:28.633Z,21.48
2023-02-25T06:21:06.993Z,20.70
2023-02-25T06:23:38.992Z,14.70
2023-02-25T06:26:11.612Z,14.48
2023-02-25T06:28:45.158Z,14.25
2023-02-25T06:31:18.316Z,17.45
2023-02-25T06:33:49.097Z,14.38
2023-02-25T06:36:23.032Z,14.63
2023-02-25T06:38:55.616Z,14.60
2023-02-25T06:41:26.072Z,14.15
2023-02-25T06:43:59.142Z,14.05
2023-02-25T06:46:29.775Z,14.00
2023-02-25T06:49:02.415Z,13.45
2023-02-25T06:51:32.959Z,14.48
2023-02-25T06:54:08.774Z,15.48
2023-02-25T06:56:42.996Z,13.70
2023-02-25T06:59:17.131Z,13.65
2023-02-25T07:01:49.758Z,13.75
2023-02-25T07:04:36.956Z,13.93
2023-02-25T07:07:09.031Z,13.82
2023-02-25T07:09:39.524Z,13.45
2023-02-25T07:12:11.408Z,13.98
2023-02-25T07:14:42.199Z,13.90
2023-02-25T07:17:17.624Z,13.77
2023-02-25T07:19:50.805Z,13.65
2023-02-25T07:22:23.865Z,13.05
2023-02-25T07:25:04.692Z,13.27
2023-02-25T07:27:35.958Z,14.02
2023-02-25T07:30:06.742Z,13.40
2023-02-25T07:32:37.484Z,13.93
2023-02-25T07:35:08.290Z,13.25
2023-02-25T07:37:40.674Z,14.25
2023-02-25T07:40:18.133Z,14.32
2023-02-25T07:42:52.498Z,12.93
2023-02-25T07:45:25.569Z,14.85
2023-02-25T07:48:02.244Z,13.23
2023-02-25T07:50:39.756Z,14.63
2023-02-25T07:53:13.151Z,14.98
2023-02-25T07:55:48.380Z,14.00
2023-02-25T07:58:19.138Z,13.88
2023-02-25T08:00:50.627Z,14.57
2023-02-25T08:03:20.800Z,15.15
2023-02-25T08:05:55.820Z,15.15
2023-02-25T08:08:26.364Z,14.23
2023-02-25T08:10:57.083Z,14.40
2023-02-25T08:13:30.010Z,14.40
2023-02-25T08:16:07.381Z,15.13
2023-02-25T08:18:46.073Z,14.50
2023-02-25T08:21:20.897Z,15.07
2023-02-25T08:23:52.960Z,15.10
2023-02-25T08:26:25.198Z,14.85
2023-02-25T08:28:59.131Z,15.48
2023-02-25T08:34:17.716Z,16.00
2023-02-25T08:36:49.517Z,14.52
2023-02-25T08:39:20.036Z,15.43
2023-02-25T08:41:50.658Z,15.27
2023-02-25T08:44:22.200Z,16.35
2023-02-25T08:46:52.687Z,15.68
2023-02-25T08:49:27.958Z,16.08
2023-02-25T08:52:01.378Z,14.90
2023-02-25T08:54:34.679Z,15.20
2023-02-25T08:57:10.156Z,15.20
2023-02-25T08:59:40.746Z,14.63
2023-02-25T09:02:18.398Z,14.75
2023-02-25T09:04:48.787Z,14.77
2023-02-25T09:07:22.022Z,16.52
2023-02-25T09:09:58.682Z,15.77
2023-02-25T09:12:32.568Z,16.90
2023-02-25T09:15:04.376Z,14.77
2023-02-25T09:17:39.359Z,15.95
2023-02-25T09:20:13.038Z,15.30
2023-02-25T09:22:45.000Z,15.50
2023-02-25T09:25:17.316Z,15.63
2023-02-25T09:27:49.352Z,15.48
2023-02-25T09:30:23.248Z,16.80
2023-02-25T09:32:54.471Z,16.63
2023-02-25T09:35:25.191Z,16.08
2023-02-25T09:37:55.859Z,16.08
2023-02-25T09:40:28.294Z,15.38
2023-02-25T09:43:19.501Z,16.35
2023-02-25T09:45:55.350Z,15.65
2023-02-25T09:48:49.913Z,18.67
2023-02-25T09:51:26.439Z,17.17
2023-02-25T09:54:37.335Z,15.60
2023-02-25T09:57:09.534Z,16.05
2023-02-25T09:59:41.699Z,16.35
2023-02-25T10:02:40.547Z,16.13
2023-02-25T10:05:53.970Z,16.80
2023-02-25T10:08:51.538Z,16.85
2023-02-25T10:12:00.547Z,17.05
2023-02-25T10:15:11.793Z,17.50
2023-02-25T10:18:07.246Z,17.40
2023-02-25T10:21:09.209Z,17.70
2023-02-25T10:24:15.377Z,19.55
2023-02-25T10:27:01.724Z,18.15
2023-02-25T10:30:01.882Z,18.20
2023-02-25T10:32:41.829Z,19.00
2023-02-25T10:35:30.307Z,18.30
2023-02-25T10:38:00.553Z,20.80
2023-02-25T10:40:31.669Z,19.05
2023-02-25T10:43:21.561Z,20.63
2023-02-25T10:46:03.287Z,19.33
2023-02-25T10:48:34.950Z,21.13
2023-02-25T10:51:17.490Z,20.73
2023-02-25T10:54:20.608Z,19.23
2023-02-25T10:56:53.291Z,20.67
2023-02-25T10:59:42.893Z,20.05
2023-02-25T11:02:37.577Z,21.20
2023-02-25T11:05:11.982Z,23.23
2023-02-25T11:07:45.115Z,30.27
2023-02-25T11:10:25.853Z,23.27
2023-02-25T11:13:02.156Z,21.90
2023-02-25T11:15:47.035Z,21.73
2023-02-25T11:18:30.195Z,20.73
2023-02-25T11:21:10.062Z,20.60
2023-02-25T11:23:48.672Z,21.00
2023-02-25T11:26:34.190Z,20.65
2023-02-25T11:29:26.538Z,20.33
2023-02-25T11:32:10.140Z,21.27
2023-02-25T11:35:02.277Z,21.80
2023-02-25T11:37:47.342Z,22.58
2023-02-25T11:40:46.554Z,23.70
2023-02-25T11:43:20.892Z,22.65
2023-02-25T11:46:32.627Z,21.50
2023-02-25T11:49:22.590Z,22.50
2023-02-25T11:52:29.538Z,22.25
2023-02-25T11:55:40.162Z,21.05
2023-02-25T11:58:54.523Z,23.00
2023-02-25T12:01:58.003Z,21.10
2023-02-25T12:05:05.924Z,21.77
2023-02-25T12:08:15.496Z,22.48
2023-02-25T12:11:16.851Z,21.23
2023-02-25T12:14:21.604Z,22.92
2023-02-25T12:17:20.510Z,22.00
2023-02-25T12:20:20.624Z,25.50
2023-02-25T12:23:34.131Z,25.17
2023-02-25T12:26:35.203Z,24.77
2023-02-25T12:29:40.163Z,23.35
2023-02-25T12:32:30.450Z,23.70
2023-02-25T12:35:42.063Z,22.67
2023-02-25T12:38:47.555Z,22.73
2023-02-25T12:41:41.699Z,22.48
2023-02-25T12:44:51.217Z,22.75
2023-02-25T12:47:59.342Z,22.48
2023-02-25T12:51:10.324Z,23.15
2023-02-25T12:54:21.436Z,23.13
2023-02-25T12:57:32.207Z,23.25
2023-02-25T13:00:41.616Z,23.20
2023-02-25T13:03:54.484Z,23.98
2023-02-25T13:07:04.359Z,24.20
2023-02-25T13:10:06.023Z,23.95
2023-02-25T13:13:15.783Z,24.73
2023-02-25T13:16:25.106Z,26.95
2023-02-25T13:19:31.629Z,24.77
2023-02-25T13:22:30.614Z,25.33
2023-02-25T13:25:41.944Z,24.38
2023-02-25T13:28:51.570Z,23.98
2023-02-25T13:31:48.097Z,24.35
2023-02-25T13:34:49.101Z,25.38
2023-02-25T13:37:44.070Z,26.83
2023-02-25T13:40:56.183Z,26.80
2023-02-25T13:44:09.685Z,24.77
2023-02-25T13:47:06.138Z,26.17
2023-02-25T13:50:15.733Z,26.73
2023-02-25T13:53:25.235Z,28.25
2023-02-25T13:56:34.398Z,26.67
2023-02-25T13:59:45.282Z,26.35
2023-02-25T14:02:54.521Z,27.00
2023-02-25T14:06:05.224Z,26.38
2023-02-25T14:09:14.727Z,25.13
2023-02-25T14:12:24.177Z,26.90
2023-02-25T14:15:26.898Z,25.92
2023-02-25T14:18:28.821Z,27.50
2023-02-25T14:21:34.428Z,28.40
2023-02-25T14:24:43.622Z,27.60
2023-02-25T14:27:56.190Z,28.00
2023-02-25T14:31:05.596Z,27.38
2023-02-25T14:34:16.935Z,29.17
2023-02-25T14:37:28.200Z,28.88
2023-02-25T14:40:38.751Z,29.70
2023-02-25T14:43:35.782Z,28.75
2023-02-25T14:46:46.755Z,31.25
2023-02-25T14:49:43.234Z,31.70
2023-02-25T14:52:48.600Z,33.63
2023-02-25T14:56:04.362Z,32.40
2023-02-25T14:59:13.887Z,33.05
2023-02-25T15:02:23.215Z,34.17
2023-02-25T15:05:28.956Z,34.65
2023-02-25T15:08:25.865Z,52.97
2023-02-25T15:11:16.182Z,38.17
2023-02-25T15:14:28.398Z,35.28
2023-02-25T15:17:38.727Z,33.03
2023-02-25T15:20:44.171Z,34.33
2023-02-25T15:23:21.139Z,33.80
2023-02-25T15:26:25.153Z,33.70
2023-02-25T15:29:02.905Z,32.40
2023-02-25T15:31:36.464Z,31.92
2023-02-25T15:34:37.344Z,33.78
2023-02-25T15:37:34.031Z,57.10
2023-02-25T15:40:51.875Z,51.60
2023-02-25T15:43:44.074Z,35.03
2023-02-25T15:46:45.159Z,35.25
2023-02-25T15:49:37.786Z,34.67
2023-02-25T15:52:14.507Z,36.20
2023-02-25T15:54:53.352Z,36.65
2023-02-25T15:57:46.454Z,34.97
2023-02-25T16:00:58.354Z,36.13
2023-02-25T16:03:42.898Z,35.50
2023-02-25T16:06:50.667Z,37.53
2023-02-25T16:09:25.280Z,36.72
2023-02-25T16:12:00.179Z,36.00
2023-02-25T16:14:39.738Z,41.50
2023-02-25T16:17:27.137Z,37.42
2023-02-25T16:20:08.262Z,37.20
2023-02-25T16:22:40.041Z,38.58
2023-02-25T16:25:17.592Z,36.10
2023-02-25T16:28:19.430Z,36.70
2023-02-25T16:31:22.437Z,37.53
2023-02-25T16:34:11.060Z,39.97
2023-02-25T16:37:09.787Z,40.42
2023-02-25T16:39:40.612Z,41.38
2023-02-25T16:42:18.435Z,39.85
2023-02-25T16:45:03.743Z,38.13
2023-02-25T16:47:38.164Z,37.58
2023-02-25T16:50:15.984Z,39.80
2023-02-25T16:52:52.129Z,38.60
2023-02-25T16:55:35.499Z,40.85
2023-02-25T16:58:25.452Z,40.33
2023-02-25T17:01:05.439Z,39.90
2023-02-25T17:04:03.414Z,41.08
2023-02-25T17:06:35.212Z,41.08
2023-02-25T17:09:05.689Z,43.78
2023-02-25T17:11:36.261Z,41.47
2023-02-25T17:14:07.627Z,40.05
2023-02-25T17:16:45.321Z,40.25
2023-02-25T17:19:20.038Z,35.97
2023-02-25T17:22:05.056Z,37.17
2023-02-25T17:24:38.039Z,34.83
2023-02-25T17:27:15.683Z,32.53
2023-02-25T17:29:46.131Z,29.33
2023-02-25T17:32:30.209Z,28.77
2023-02-25T17:35:10.148Z,28.77
2023-02-25T17:37:41.452Z,27.00
2023-02-25T17:40:15.244Z,26.60
2023-02-25T17:42:48.476Z,26.00
2023-02-25T17:45:50.550Z,24.90
2023-02-25T17:48:25.497Z,25.60
2023-02-25T17:51:03.247Z,24.33
2023-02-25T17:53:59.778Z,24.42
2023-02-25T17:56:34.096Z,25.05
2023-02-25T17:59:29.514Z,23.73
2023-02-25T18:02:03.784Z,24.77
2023-02-25T18:04:45.216Z,24.17
2023-02-25T18:07:35.169Z,23.90
2023-02-25T18:10:09.133Z,25.50
2023-02-25T18:12:42.685Z,24.92
2023-02-25T18:15:32.348Z,23.25
2023-02-25T18:18:08.854Z,23.65
2023-02-25T18:20:43.703Z,25.27
2023-02-25T18:23:33.350Z,24.08
2023-02-25T18:26:28.902Z,25.00
2023-02-25T18:29:02.125Z,24.17
2023-02-25T18:31:37.330Z,25.50
2023-02-25T18:34:07.971Z,32.38
2023-02-25T18:36:40.777Z,33.17
2023-02-25T18:39:18.019Z,23.55
2023-02-25T18:41:48.330Z,23.85
2023-02-25T18:44:20.398Z,25.02
2023-02-25T18:46:52.065Z,24.70
2023-02-25T18:49:23.365Z,23.80
2023-02-25T18:51:55.252Z,24.20
2023-02-25T18:54:28.602Z,23.45
2023-02-25T18:57:07.220Z,23.85
2023-02-25T18:59:38.514Z,24.88
2023-02-25T19:02:33.432Z,23.02
2023-02-25T19:05:08.357Z,22.92
2023-02-25T19:07:38.854Z,24.05
2023-02-25T19:10:10.202Z,23.85
2023-02-25T19:12:40.347Z,23.35
2023-02-25T19:15:15.824Z,21.52
2023-02-25T19:17:48.128Z,20.38
2023-02-25T19:20:20.932Z,19.85
2023-02-25T19:22:54.372Z,20.10
2023-02-25T19:25:29.322Z,19.55
2023-02-25T19:28:00.046Z,19.88
2023-02-25T19:30:35.387Z,20.90
2023-02-25T19:33:06.742Z,19.48
2023-02-25T19:35:38.712Z,18.38
2023-02-25T19:38:11.275Z,19.20
2023-02-25T19:40:42.037Z,19.60
2023-02-25T19:43:13.833Z,17.77
2023-02-25T19:45:45.451Z,18.77
2023-02-25T19:48:16.202Z,19.10
2023-02-25T19:50:46.403Z,18.58
2023-02-25T19:53:16.872Z,18.40
2023-02-25T19:55:47.136Z,19.25
2023-02-25T19:58:17.677Z,18.02
2023-02-25T20:00:48.377Z,17.50
2023-02-25T20:03:18.669Z,18.42
2023-02-25T20:05:49.295Z,18.15
2023-02-25T20:08:19.779Z,17.95
2023-02-25T20:10:50.333Z,17.98
2023-02-25T20:13:20.365Z,19.42
2023-02-25T20:15:50.571Z,18.92
2023-02-25T20:18:20.895Z,18.13
2023-02-25T20:20:52.053Z,18.90
2023-02-25T20:23:22.808Z,18.48
2023-02-25T20:25:53.334Z,19.48
2023-02-25T20:28:25.523Z,18.60
2023-02-25T20:31:12.624Z,19.58
2023-02-25T20:33:44.118Z,20.60
2023-02-25T20:36:33.519Z,19.17
2023-02-25T20:39:42.727Z,20.20
2023-02-25T20:42:19.200Z,20.52
2023-02-25T20:44:51.595Z,19.65
2023-02-25T20:47:25.893Z,19.77
2023-02-25T20:49:57.096Z,19.58
2023-02-25T20:52:30.885Z,22.00
2023-02-25T20:55:01.009Z,20.48
2023-02-25T20:57:31.497Z,20.42
2023-02-25T21:00:01.290Z,20.75
2023-02-25T21:02:31.767Z,21.27
2023-02-25T21:05:02.080Z,21.58
2023-02-25T21:07:32.279Z,20.98
2023-02-25T21:10:02.763Z,20.05
2023-02-25T21:12:33.269Z,19.75
2023-02-25T21:15:04.155Z,20.77
2023-02-25T21:17:34.400Z,20.50
2023-02-25T21:20:08.398Z,21.20
2023-02-25T21:22:39.406Z,21.10
2023-02-25T21:25:10.519Z,20.77
2023-02-25T21:27:40.988Z,20.45
2023-02-25T21:30:11.822Z,22.27
2023-02-25T21:32:42.017Z,20.92
2023-02-25T21:35:12.949Z,20.70
2023-02-25T21:37:43.219Z,21.88
2023-02-25T21:40:14.638Z,21.08
2023-02-25T21:42:45.062Z,21.05
2023-02-25T21:45:15.688Z,21.73
2023-02-25T21:47:46.254Z,21.60
2023-02-25T21:50:16.639Z,20.92
2023-02-25T21:52:47.111Z,20.65
2023-02-25T21:55:17.676Z,21.35
2023-02-25T21:57:48.048Z,20.70
2023-02-25T22:00:18.754Z,21.63
2023-02-25T22:02:49.115Z,21.05
2023-02-25T22:05:20.316Z,21.75
2023-02-25T22:07:50.915Z,22.52
2023-02-25T22:10:22.279Z,22.77
2023-02-25T22:12:52.812Z,22.58
2023-02-25T22:15:23.619Z,23.35
2023-02-25T22:17:53.913Z,21.88
2023-02-25T22:20:24.106Z,34.88
2023-02-25T22:22:54.209Z,36.72
2023-02-25T22:25:24.634Z,35.05
2023-02-25T22:27:55.025Z,22.35
2023-02-25T22:30:25.244Z,25.63
2023-02-25T22:32:55.435Z,23.13
2023-02-25T22:35:25.688Z,23.27
2023-02-25T22:37:56.419Z,22.42
2023-02-25T22:40:27.185Z,22.10
2023-02-25T22:42:57.466Z,21.88
2023-02-25T22:45:28.262Z,21.13
2023-02-25T22:47:58.500Z,21.25
2023-02-25T22:50:30.567Z,21.88
2023-02-25T22:53:00.678Z,22.15
2023-02-25T22:55:31.000Z,22.00
2023-02-25T22:58:01.727Z,73.13
2023-02-25T23:00:39.214Z,36.78
2023-02-25T23:03:10.798Z,27.50
2023-02-25T23:05:41.148Z,22.52
2023-02-25T23:08:11.507Z,22.50
2023-02-25T23:10:41.556Z,22.27
2023-02-25T23:13:13.051Z,21.17
2023-02-25T23:15:44.292Z,22.90
2023-02-25T23:18:15.845Z,22.35
2023-02-25T23:20:49.020Z,21.20
2023-02-25T23:23:19.291Z,21.73
2023-02-25T23:25:55.860Z,26.77
2023-02-25T23:28:26.052Z,21.90
2023-02-25T23:30:55.993Z,22.88
2023-02-25T23:33:26.516Z,21.90
2023-02-25T23:35:57.079Z,22.85
2023-02-25T23:38:28.072Z,21.90
2023-02-25T23:41:04.656Z,21.70
2023-02-25T23:43:35.052Z,23.13
2023-02-25T23:46:07.135Z,23.13
2023-02-25T23:48:37.415Z,29.35
2023-02-25T23:51:10.928Z,24.25
2023-02-25T23:53:41.402Z,22.15
2023-02-25T23:56:14.059Z,23.40
2023-02-25T23:58:44.798Z,23.25
